createdAt,value
2017-07-17T00:01:09.682Z,2.27
2017-07-17T00:03:37.250Z,2.80
2017-07-17T00:06:04.824Z,2.83
2017-07-17T00:08:32.409Z,3.03
2017-07-17T00:10:59.973Z,3.30
2017-07-17T00:13:27.549Z,2.67
2017-07-17T00:15:55.114Z,2.57
2017-07-17T00:18:22.691Z,2.73
2017-07-17T00:20:50.264Z,2.70
2017-07-17T00:23:17.833Z,2.10
2017-07-17T00:25:45.387Z,3.27
2017-07-17T00:28:12.948Z,2.83
2017-07-17T00:30:40.532Z,2.90
2017-07-17T00:33:08.099Z,2.60
2017-07-17T00:35:35.680Z,3.27
2017-07-17T00:38:03.247Z,2.60
2017-07-17T00:40:30.822Z,2.53
2017-07-17T00:42:58.384Z,2.57
2017-07-17T00:45:25.960Z,2.70
2017-07-17T00:47:53.526Z,2.53
2017-07-17T00:50:21.100Z,2.50
2017-07-17T00:52:48.662Z,2.43
2017-07-17T00:55:17.114Z,2.60
2017-07-17T00:57:44.674Z,2.70
2017-07-17T01:00:12.238Z,2.20
2017-07-17T01:02:39.957Z,2.50
2017-07-17T01:05:07.553Z,2.50
2017-07-17T01:07:35.118Z,2.13
2017-07-17T01:10:02.789Z,1.90
2017-07-17T01:12:30.360Z,1.80
2017-07-17T01:14:57.934Z,2.20
2017-07-17T01:17:25.508Z,2.70
2017-07-17T01:19:53.092Z,2.00
2017-07-17T01:22:20.687Z,1.90
2017-07-17T01:24:48.274Z,2.10
2017-07-17T01:27:16.604Z,2.40
2017-07-17T01:29:44.183Z,1.83
2017-07-17T01:32:11.816Z,2.00
2017-07-17T01:34:39.404Z,2.43
2017-07-17T01:37:06.969Z,1.90
2017-07-17T01:39:34.553Z,1.93
2017-07-17T01:42:02.130Z,1.92
2017-07-17T01:44:29.734Z,2.17
2017-07-17T01:46:57.305Z,2.30
2017-07-17T01:49:24.901Z,2.17
2017-07-17T01:51:52.476Z,2.10
2017-07-17T01:54:20.329Z,2.30
2017-07-17T01:56:47.892Z,2.10
2017-07-17T01:59:15.452Z,2.00
2017-07-17T02:01:43.031Z,2.27
2017-07-17T02:04:10.604Z,2.00
2017-07-17T02:06:38.187Z,2.27
2017-07-17T02:09:06.553Z,2.50
2017-07-17T02:11:34.126Z,2.53
2017-07-17T02:14:01.687Z,2.10
2017-07-17T02:16:30.034Z,2.17
2017-07-17T02:18:57.609Z,2.40
2017-07-17T02:21:25.183Z,2.20
2017-07-17T02:23:53.498Z,1.90
2017-07-17T02:26:21.111Z,1.83
2017-07-17T02:28:49.443Z,2.07
2017-07-17T02:31:17.055Z,1.90
2017-07-17T02:33:44.630Z,1.83
2017-07-17T02:36:12.977Z,2.20
2017-07-17T02:38:40.551Z,2.00
2017-07-17T02:41:08.148Z,2.08
2017-07-17T02:43:35.710Z,2.40
2017-07-17T02:46:03.278Z,2.40
2017-07-17T02:48:30.839Z,2.40
2017-07-17T02:50:58.424Z,2.20
2017-07-17T02:53:26.054Z,2.20
2017-07-17T02:55:53.640Z,2.20
2017-07-17T02:58:21.236Z,2.03
2017-07-17T03:00:49.562Z,2.40
2017-07-17T03:03:17.170Z,2.00
2017-07-17T03:05:44.739Z,2.40
2017-07-17T03:08:12.323Z,2.43
2017-07-17T03:10:39.909Z,2.07
2017-07-17T03:13:07.481Z,2.25
2017-07-17T03:15:35.068Z,2.12
2017-07-17T03:18:02.626Z,2.20
2017-07-17T03:20:30.278Z,2.30
2017-07-17T03:22:57.829Z,2.50
2017-07-17T03:25:26.489Z,2.40
2017-07-17T03:27:54.072Z,2.10
2017-07-17T03:30:22.415Z,1.92
2017-07-17T03:32:49.994Z,2.50
2017-07-17T03:35:17.583Z,2.25
2017-07-17T03:37:45.179Z,2.37
2017-07-17T03:40:12.945Z,2.30
2017-07-17T03:42:40.602Z,2.30
2017-07-17T03:45:08.172Z,2.17
2017-07-17T03:47:35.749Z,2.70
2017-07-17T03:50:03.320Z,2.58
2017-07-17T03:52:31.102Z,2.58
2017-07-17T03:54:59.563Z,1.98
2017-07-17T03:57:27.153Z,2.50
2017-07-17T03:59:54.758Z,2.20
2017-07-17T04:02:22.330Z,2.40
2017-07-17T04:04:50.697Z,2.20
2017-07-17T04:07:18.327Z,2.40
2017-07-17T04:09:45.942Z,2.60
2017-07-17T04:12:13.537Z,2.17
2017-07-17T04:14:41.104Z,2.45
2017-07-17T04:17:08.786Z,2.50
2017-07-17T04:19:36.400Z,2.25
2017-07-17T04:22:04.001Z,2.25
2017-07-17T04:24:31.633Z,2.30
2017-07-17T04:26:59.228Z,2.55
2017-07-17T04:29:26.849Z,2.78
2017-07-17T04:31:54.442Z,2.30
2017-07-17T04:34:22.103Z,2.60
2017-07-17T04:36:49.695Z,2.30
2017-07-17T04:39:17.347Z,2.07
2017-07-17T04:41:44.958Z,2.40
2017-07-17T04:44:12.535Z,2.20
2017-07-17T04:46:40.153Z,2.57
2017-07-17T04:49:08.497Z,2.20
2017-07-17T04:51:36.058Z,2.60
2017-07-17T04:54:03.631Z,2.07
2017-07-17T04:56:31.482Z,2.07
2017-07-17T04:58:59.053Z,2.70
2017-07-17T05:01:26.659Z,2.30
2017-07-17T05:03:54.261Z,2.20
2017-07-17T05:06:21.856Z,2.10
2017-07-17T05:08:49.431Z,2.13
2017-07-17T05:11:17.021Z,2.33
2017-07-17T05:13:44.577Z,2.30
2017-07-17T05:16:12.141Z,2.30
2017-07-17T05:18:39.777Z,2.73
2017-07-17T05:21:07.353Z,2.60
2017-07-17T05:23:35.792Z,2.10
2017-07-17T05:26:04.114Z,2.00
2017-07-17T05:28:31.677Z,2.00
2017-07-17T05:30:59.233Z,2.00
2017-07-17T05:33:26.823Z,2.37
2017-07-17T05:35:54.387Z,2.30
2017-07-17T05:38:21.971Z,2.30
2017-07-17T05:40:49.550Z,2.00
2017-07-17T05:43:17.165Z,2.07
2017-07-17T05:45:44.744Z,1.93
2017-07-17T05:48:13.162Z,1.93
2017-07-17T05:50:40.718Z,1.60
2017-07-17T05:53:08.300Z,1.80
2017-07-17T05:55:35.868Z,1.90
2017-07-17T05:58:03.463Z,2.03
2017-07-17T06:00:31.045Z,1.77
2017-07-17T06:02:58.618Z,1.90
2017-07-17T06:05:26.197Z,1.90
2017-07-17T06:07:53.798Z,1.50
2017-07-17T06:10:22.205Z,2.10
2017-07-17T06:12:49.804Z,1.50
2017-07-17T06:15:17.429Z,1.80
2017-07-17T06:17:44.993Z,1.87
2017-07-17T06:20:12.565Z,1.60
2017-07-17T06:22:40.208Z,2.00
2017-07-17T06:25:07.775Z,1.80
2017-07-17T06:27:35.347Z,1.80
2017-07-17T06:30:02.939Z,2.30
2017-07-17T06:32:30.496Z,1.77
2017-07-17T06:34:58.068Z,1.50
2017-07-17T06:37:26.412Z,1.63
2017-07-17T06:39:54.013Z,1.73
2017-07-17T06:42:22.342Z,1.77
2017-07-17T06:44:49.929Z,1.90
2017-07-17T06:47:17.528Z,1.50
2017-07-17T06:49:45.096Z,1.63
2017-07-17T06:52:12.658Z,2.10
2017-07-17T06:54:40.237Z,1.90
2017-07-17T06:57:07.785Z,1.73
2017-07-17T06:59:35.350Z,1.73
2017-07-17T07:02:02.925Z,1.60
2017-07-17T07:04:31.435Z,1.87
2017-07-17T07:06:59.020Z,1.90
2017-07-17T07:09:26.596Z,1.80
2017-07-17T07:11:54.160Z,1.93
2017-07-17T07:14:21.726Z,1.30
2017-07-17T07:16:49.340Z,2.30
2017-07-17T07:19:16.913Z,1.63
2017-07-17T07:21:44.532Z,1.50
2017-07-17T07:24:12.097Z,1.60
2017-07-17T07:26:39.668Z,1.73
2017-07-17T07:29:08.058Z,1.93
2017-07-17T07:31:35.636Z,1.60
2017-07-17T07:34:03.194Z,1.70
2017-07-17T07:36:30.769Z,1.87
2017-07-17T07:38:58.388Z,1.90
2017-07-17T07:41:26.766Z,2.20
2017-07-17T07:43:55.133Z,1.93
2017-07-17T07:46:22.814Z,1.80
2017-07-17T07:48:51.157Z,2.13
2017-07-17T07:51:18.708Z,1.63
2017-07-17T07:53:46.273Z,1.60
2017-07-17T07:56:13.836Z,1.60
2017-07-17T07:58:41.404Z,1.47
2017-07-17T08:01:08.984Z,1.90
2017-07-17T08:03:36.539Z,1.80
2017-07-17T08:06:04.112Z,1.70
2017-07-17T08:08:31.731Z,1.60
2017-07-17T08:10:59.361Z,1.67
2017-07-17T08:13:26.935Z,1.67
2017-07-17T08:15:54.537Z,2.20
2017-07-17T08:18:22.164Z,1.70
2017-07-17T08:20:49.773Z,2.03
2017-07-17T08:23:17.337Z,2.00
2017-07-17T08:25:44.907Z,1.60
2017-07-17T08:28:12.470Z,1.80
2017-07-17T08:30:40.043Z,2.43
2017-07-17T08:33:07.628Z,2.00
2017-07-17T08:35:35.988Z,1.70
2017-07-17T08:38:03.570Z,2.10
2017-07-17T08:40:31.153Z,2.10
2017-07-17T08:42:58.730Z,1.97
2017-07-17T08:45:26.322Z,1.60
2017-07-17T08:47:53.887Z,2.07
2017-07-17T08:50:21.452Z,2.00
2017-07-17T08:52:49.041Z,1.80
2017-07-17T08:55:16.634Z,1.50
2017-07-17T08:57:44.191Z,1.90
2017-07-17T09:00:11.776Z,1.67
2017-07-17T09:02:39.347Z,1.70
2017-07-17T09:05:06.928Z,2.20
2017-07-17T09:07:35.275Z,1.70
2017-07-17T09:10:02.865Z,2.07
2017-07-17T09:12:31.550Z,1.83
2017-07-17T09:14:59.135Z,1.90
2017-07-17T09:17:26.730Z,1.40
2017-07-17T09:19:54.299Z,2.07
2017-07-17T09:22:21.869Z,2.50
2017-07-17T09:24:49.806Z,1.63
2017-07-17T09:27:17.408Z,2.10
2017-07-17T09:29:45.831Z,1.73
2017-07-17T09:32:13.413Z,1.87
2017-07-17T09:34:40.976Z,2.07
2017-07-17T09:37:08.538Z,1.90
2017-07-17T09:39:36.110Z,2.13
2017-07-17T09:42:03.691Z,1.87
2017-07-17T09:44:32.039Z,2.03
2017-07-17T09:46:59.622Z,1.97
2017-07-17T09:49:27.213Z,2.03
2017-07-17T09:51:54.812Z,1.60
2017-07-17T09:54:22.380Z,1.77
2017-07-17T09:56:49.967Z,1.77
2017-07-17T09:59:18.315Z,2.00
2017-07-17T10:01:45.942Z,2.10
2017-07-17T10:04:13.498Z,1.90
2017-07-17T10:06:41.078Z,1.30
2017-07-17T10:09:08.635Z,1.93
2017-07-17T10:11:36.219Z,1.47
2017-07-17T10:14:04.551Z,2.00
2017-07-17T10:16:32.115Z,1.60
2017-07-17T10:18:59.675Z,1.77
2017-07-17T10:21:27.241Z,2.03
2017-07-17T10:23:54.818Z,1.93
2017-07-17T10:26:22.389Z,1.67
2017-07-17T10:28:49.967Z,1.73
2017-07-17T10:31:17.553Z,1.60
2017-07-17T10:33:45.163Z,1.87
2017-07-17T10:36:12.731Z,1.80
2017-07-17T10:38:41.053Z,1.80
2017-07-17T10:41:08.841Z,1.50
2017-07-17T10:43:36.413Z,2.00
2017-07-17T10:46:03.996Z,1.67
2017-07-17T10:48:31.568Z,1.83
2017-07-17T10:50:59.272Z,1.70
2017-07-17T10:53:26.835Z,1.73
2017-07-17T10:55:54.719Z,1.83
2017-07-17T10:58:22.299Z,1.83
2017-07-17T11:00:50.634Z,1.90
2017-07-17T11:03:18.251Z,1.60
2017-07-17T11:05:45.862Z,1.57
2017-07-17T11:08:13.508Z,2.07
2017-07-17T11:10:41.114Z,1.90
2017-07-17T11:13:09.458Z,1.80
2017-07-17T11:15:37.033Z,1.90
2017-07-17T11:18:04.633Z,1.83
2017-07-17T11:20:32.191Z,1.57
2017-07-17T11:22:59.774Z,1.70
2017-07-17T11:25:27.331Z,1.97
2017-07-17T11:27:54.892Z,1.60
2017-07-17T11:30:22.450Z,1.60
2017-07-17T11:32:50.029Z,2.17
2017-07-17T11:35:17.594Z,1.73
2017-07-17T11:37:45.180Z,2.13
2017-07-17T11:40:12.773Z,2.00
2017-07-17T11:42:40.415Z,1.93
2017-07-17T11:45:08.775Z,1.97
2017-07-17T12:00:09.132Z,1.90
2017-07-17T12:02:36.749Z,1.83
2017-07-17T12:07:31.449Z,1.63
2017-07-17T12:09:59.830Z,1.77
2017-07-17T12:12:28.174Z,1.97
2017-07-17T12:14:55.749Z,1.60
2017-07-17T12:17:23.330Z,1.87
2017-07-17T12:19:51.695Z,1.90
2017-07-17T12:22:20.028Z,1.60
2017-07-17T12:24:47.608Z,1.93
2017-07-17T12:27:15.167Z,1.90
2017-07-17T12:29:42.755Z,1.87
2017-07-17T12:32:10.325Z,1.73
2017-07-17T12:34:37.952Z,2.57
2017-07-17T12:37:05.511Z,1.70
2017-07-17T12:39:33.096Z,1.63
2017-07-17T12:42:01.435Z,1.50
2017-07-17T12:44:29.028Z,1.67
2017-07-17T12:46:57.370Z,1.67
2017-07-17T12:49:24.969Z,1.57
2017-07-17T12:51:53.322Z,1.87
2017-07-17T12:54:20.914Z,1.50
2017-07-17T12:56:48.499Z,1.30
2017-07-17T12:59:16.114Z,1.50
2017-07-17T13:01:44.457Z,1.40
2017-07-17T13:04:12.053Z,1.30
2017-07-17T13:06:40.415Z,1.47
2017-07-17T13:09:08.045Z,1.70
2017-07-17T13:11:35.618Z,1.30
2017-07-17T13:14:03.195Z,1.40
2017-07-17T13:16:30.767Z,1.63
2017-07-17T13:18:59.109Z,1.47
2017-07-17T13:21:26.724Z,1.60
2017-07-17T13:23:54.328Z,1.70
2017-07-17T13:26:21.918Z,1.60
2017-07-17T13:28:50.293Z,1.30
2017-07-17T13:31:17.866Z,1.50
2017-07-17T13:33:46.213Z,1.50
2017-07-17T13:36:13.817Z,1.53
2017-07-17T13:38:41.388Z,1.70
2017-07-17T13:41:08.994Z,1.60
2017-07-17T13:43:36.564Z,1.60
2017-07-17T13:46:04.160Z,1.90
2017-07-17T13:48:31.742Z,1.43
2017-07-17T13:50:59.372Z,1.23
2017-07-17T13:53:27.123Z,1.23
2017-07-17T13:55:55.477Z,1.43
2017-07-17T13:58:23.049Z,1.27
2017-07-17T14:00:51.422Z,1.60
2017-07-17T14:03:19.021Z,1.37
2017-07-17T14:05:46.853Z,1.73
2017-07-17T14:08:14.505Z,1.53
2017-07-17T14:10:42.096Z,1.83
2017-07-17T14:13:09.666Z,1.70
2017-07-17T14:15:37.249Z,1.83
2017-07-17T14:18:04.899Z,1.58
2017-07-17T14:20:32.471Z,1.60
2017-07-17T14:23:00.028Z,1.53
2017-07-17T14:25:27.623Z,1.20
2017-07-17T14:27:55.192Z,1.50
2017-07-17T14:30:24.297Z,1.97
2017-07-17T14:32:51.879Z,1.40
2017-07-17T14:35:19.480Z,1.80
2017-07-17T14:37:47.103Z,1.60
2017-07-17T14:40:14.685Z,1.70
2017-07-17T14:42:42.461Z,1.90
2017-07-17T14:45:10.083Z,1.67
2017-07-17T14:47:37.750Z,1.87
2017-07-17T14:50:05.340Z,1.80
2017-07-17T14:52:33.684Z,1.70
2017-07-17T14:55:01.274Z,1.70
2017-07-17T14:57:28.869Z,1.73
2017-07-17T14:59:57.221Z,1.80
2017-07-17T15:02:24.802Z,1.80
2017-07-17T15:04:53.145Z,1.70
2017-07-17T15:07:20.725Z,1.90
2017-07-17T15:09:49.051Z,1.60
2017-07-17T15:12:16.632Z,2.07
2017-07-17T15:14:45.017Z,1.60
2017-07-17T15:17:12.601Z,1.60
2017-07-17T15:19:40.965Z,1.73
2017-07-17T15:22:08.543Z,1.57
2017-07-17T15:24:36.964Z,2.07
2017-07-17T15:27:04.563Z,1.83
2017-07-17T15:29:32.183Z,1.30
2017-07-17T15:31:59.775Z,1.17
2017-07-17T15:34:27.396Z,1.50
2017-07-17T15:36:54.988Z,1.33
2017-07-17T15:39:22.551Z,1.50
2017-07-17T15:41:50.145Z,1.37
2017-07-17T15:44:17.742Z,1.40
2017-07-17T15:46:45.650Z,1.43
2017-07-17T15:49:13.227Z,1.33
2017-07-17T15:51:40.830Z,1.40
2017-07-17T15:54:08.436Z,1.50
2017-07-17T15:56:36.807Z,1.63
2017-07-17T15:59:04.435Z,1.50
2017-07-17T16:01:32.017Z,1.53
2017-07-17T16:03:59.591Z,1.30
2017-07-17T16:06:27.929Z,1.33
2017-07-17T16:08:55.547Z,1.87
2017-07-17T16:11:23.171Z,1.60
2017-07-17T16:13:50.751Z,1.60
2017-07-17T16:16:19.098Z,1.37
2017-07-17T16:18:46.689Z,1.07
2017-07-17T16:21:15.024Z,1.30
2017-07-17T16:23:42.604Z,1.40
2017-07-17T16:26:10.178Z,1.50
2017-07-17T16:28:37.801Z,1.30
2017-07-17T16:31:05.374Z,1.30
2017-07-17T16:33:32.950Z,1.30
2017-07-17T16:36:00.530Z,1.27
2017-07-17T16:38:28.888Z,1.27
2017-07-17T16:40:56.472Z,1.50
2017-07-17T16:43:24.075Z,1.60
2017-07-17T16:45:51.643Z,1.73
2017-07-17T16:48:19.231Z,1.37
2017-07-17T16:50:47.571Z,1.30
2017-07-17T16:53:15.161Z,1.40
2017-07-17T16:55:43.547Z,1.80
2017-07-17T16:58:11.899Z,1.43
2017-07-17T17:00:40.275Z,2.07
2017-07-17T17:03:08.173Z,1.50
2017-07-17T17:05:36.507Z,1.33
2017-07-17T17:08:04.093Z,1.47
2017-07-17T17:10:31.681Z,1.50
2017-07-17T17:12:59.264Z,1.63
2017-07-17T17:15:26.850Z,1.40
2017-07-17T17:17:54.423Z,1.37
2017-07-17T17:20:22.002Z,1.50
2017-07-17T17:22:49.585Z,1.50
2017-07-17T17:25:17.195Z,2.70
2017-07-17T17:27:44.793Z,2.30
2017-07-17T17:30:12.386Z,1.50
2017-07-17T17:32:40.048Z,1.80
2017-07-17T17:35:07.896Z,1.50
2017-07-17T17:37:35.448Z,1.47
2017-07-17T17:40:03.028Z,1.50
2017-07-17T17:42:30.617Z,1.20
2017-07-17T17:44:58.191Z,1.20
2017-07-17T17:47:26.064Z,1.60
2017-07-17T17:49:53.671Z,1.30
2017-07-17T17:52:21.236Z,1.47
2017-07-17T17:54:48.810Z,1.50
2017-07-17T17:57:16.445Z,1.30
2017-07-17T17:59:44.042Z,1.40
2017-07-17T18:02:11.686Z,1.50
2017-07-17T18:04:39.758Z,1.77
2017-07-17T18:07:07.369Z,1.50
2017-07-17T18:09:34.966Z,1.47
2017-07-17T18:12:02.576Z,1.80
2017-07-17T18:14:30.156Z,1.60
2017-07-17T18:16:57.733Z,1.47
2017-07-17T18:19:25.316Z,1.60
2017-07-17T18:21:53.262Z,1.50
2017-07-17T18:24:20.862Z,1.50
2017-07-17T18:26:48.666Z,1.90
2017-07-17T18:29:16.307Z,1.60
2017-07-17T18:31:44.669Z,1.67
2017-07-17T18:34:12.265Z,1.43
2017-07-17T18:36:39.826Z,1.83
2017-07-17T18:39:07.805Z,1.57
2017-07-17T18:41:35.404Z,1.23
2017-07-17T18:44:02.988Z,1.43
2017-07-17T18:46:31.398Z,1.60
2017-07-17T18:48:59.026Z,1.70
2017-07-17T18:51:26.732Z,1.30
2017-07-17T18:53:54.380Z,1.63
2017-07-17T18:56:22.266Z,1.73
2017-07-17T18:58:50.090Z,2.37
2017-07-17T19:01:17.706Z,1.97
2017-07-17T19:03:45.586Z,3.97
2017-07-17T19:06:13.943Z,3.00
2017-07-17T19:08:41.509Z,2.60
2017-07-17T19:11:09.104Z,2.50
2017-07-17T19:13:37.575Z,2.60
2017-07-17T19:16:06.002Z,2.00
2017-07-17T19:18:33.639Z,1.67
2017-07-17T19:21:01.581Z,2.17
2017-07-17T19:23:29.292Z,1.73
2017-07-17T19:25:56.948Z,2.07
2017-07-17T19:28:24.618Z,1.80
2017-07-17T19:30:52.205Z,2.83
2017-07-17T19:33:19.829Z,3.60
2017-07-17T19:35:47.469Z,2.20
2017-07-17T19:38:16.104Z,2.60
2017-07-17T19:40:43.701Z,2.10
2017-07-17T19:43:12.069Z,1.97
2017-07-17T19:45:40.582Z,2.27
2017-07-17T19:48:08.410Z,1.93
2017-07-17T19:50:36.083Z,3.80
2017-07-17T19:53:04.427Z,2.03
2017-07-17T19:55:32.087Z,2.67
2017-07-17T19:57:59.737Z,2.50
2017-07-17T20:00:27.670Z,2.23
2017-07-17T20:02:55.303Z,2.03
2017-07-17T20:05:23.675Z,1.90
2017-07-17T20:07:52.059Z,2.13
2017-07-17T20:10:20.401Z,1.90
2017-07-17T20:12:48.201Z,2.00
2017-07-17T20:15:16.449Z,2.70
2017-07-17T20:17:44.335Z,2.50
2017-07-17T20:20:12.680Z,2.30
2017-07-17T20:22:40.272Z,2.10
2017-07-17T20:25:08.634Z,3.07
2017-07-17T20:27:36.210Z,2.57
2017-07-17T20:30:03.805Z,3.20
2017-07-17T20:32:31.768Z,2.80
2017-07-17T20:34:59.688Z,2.90
2017-07-17T20:37:27.269Z,2.70
2017-07-17T20:39:55.625Z,3.20
2017-07-17T20:42:23.218Z,3.53
2017-07-17T20:44:50.796Z,3.20
2017-07-17T20:47:18.384Z,3.50
2017-07-17T20:49:45.961Z,3.70
2017-07-17T20:52:13.920Z,3.17
2017-07-17T20:54:41.491Z,3.10
2017-07-17T20:57:09.081Z,3.60
2017-07-17T20:59:36.646Z,4.00
2017-07-17T21:02:04.209Z,3.50
2017-07-17T21:04:31.794Z,4.10
2017-07-17T21:06:59.367Z,3.50
2017-07-17T21:09:27.313Z,3.40
2017-07-17T21:11:54.891Z,3.43
2017-07-17T21:14:22.469Z,4.00
2017-07-17T21:16:51.217Z,4.13
2017-07-17T21:19:18.932Z,3.40
2017-07-17T21:21:46.549Z,3.80
2017-07-17T21:24:14.107Z,3.60
2017-07-17T21:26:41.974Z,3.90
2017-07-17T21:29:09.702Z,4.00
2017-07-17T21:31:38.205Z,3.63
2017-07-17T21:34:05.772Z,3.60
2017-07-17T21:36:33.327Z,4.00
2017-07-17T21:39:00.918Z,3.80
2017-07-17T21:41:28.498Z,4.40
2017-07-17T21:43:56.499Z,4.03
2017-07-17T21:46:24.103Z,4.07
2017-07-17T21:48:51.673Z,4.60
2017-07-17T21:51:19.293Z,4.03
2017-07-17T21:53:46.921Z,4.37
2017-07-17T21:56:14.497Z,4.17
2017-07-17T21:58:42.054Z,4.57
2017-07-17T22:01:09.894Z,4.47
2017-07-17T22:03:38.234Z,4.50
2017-07-17T22:06:05.832Z,4.50
2017-07-17T22:08:33.413Z,4.43
2017-07-17T22:11:00.981Z,4.57
2017-07-17T22:13:28.638Z,4.60
2017-07-17T22:15:56.226Z,5.03
2017-07-17T22:18:24.095Z,4.20
2017-07-17T22:20:52.453Z,4.73
2017-07-17T22:23:20.033Z,4.60
2017-07-17T22:25:47.607Z,4.50
2017-07-17T22:28:15.177Z,5.13
2017-07-17T22:30:43.539Z,4.40
2017-07-17T22:33:11.101Z,4.63
2017-07-17T22:35:39.037Z,4.00
2017-07-17T22:38:06.596Z,4.53
2017-07-17T22:40:34.182Z,4.43
2017-07-17T22:43:01.765Z,4.10
2017-07-17T22:45:29.365Z,4.80
2017-07-17T22:47:56.942Z,5.13
2017-07-17T22:50:24.499Z,4.90
2017-07-17T22:52:52.362Z,4.40
2017-07-17T22:55:19.945Z,4.37
2017-07-17T22:57:47.526Z,4.80
2017-07-17T23:00:15.873Z,5.10
2017-07-17T23:02:43.681Z,4.30
2017-07-17T23:05:11.259Z,4.47
2017-07-17T23:07:38.838Z,4.43
2017-07-17T23:10:06.429Z,6.00
2017-07-17T23:12:34.032Z,4.70
2017-07-17T23:15:01.880Z,5.07
2017-07-17T23:17:29.457Z,4.90
2017-07-17T23:19:57.021Z,4.57
2017-07-17T23:22:24.601Z,4.30
2017-07-17T23:24:52.158Z,4.77
2017-07-17T23:27:19.767Z,4.83
2017-07-17T23:29:48.103Z,4.90
2017-07-17T23:32:15.980Z,5.20
2017-07-17T23:34:43.540Z,5.40
2017-07-17T23:37:11.121Z,4.47
2017-07-17T23:39:39.471Z,3.90
2017-07-17T23:42:07.103Z,4.77
2017-07-17T23:44:34.681Z,4.50
2017-07-17T23:47:02.254Z,5.20
2017-07-17T23:49:29.849Z,4.60
2017-07-17T23:51:57.425Z,4.83
2017-07-17T23:54:25.036Z,5.00
2017-07-17T23:56:52.622Z,4.40
2017-07-17T23:59:20.191Z,4.90
